sensor_id;sensor_type;location;lat;lon;timestamp;temperature;humidity
44277;DHT22;29973;43.742;1.236;2023-12-20T00:01:33;7.10;99.90
44277;DHT22;29973;43.742;1.236;2023-12-20T00:03:59;7.10;99.90
44277;DHT22;29973;43.742;1.236;2023-12-20T00:06:24;7.20;99.90
44277;DHT22;29973;43.742;1.236;2023-12-20T00:08:50;7.10;99.90
44277;DHT22;29973;43.742;1.236;2023-12-20T00:11:16;7.20;99.90
44277;DHT22;29973;43.742;1.236;2023-12-20T00:13:41;7.20;99.90
44277;DHT22;29973;43.742;1.236;2023-12-20T00:16:07;7.10;99.90
44277;DHT22;29973;43.742;1.236;2023-12-20T00:18:33;7.10;99.90
44277;DHT22;29973;43.742;1.236;2023-12-20T00:20:58;7.10;99.90
44277;DHT22;29973;43.742;1.236;2023-12-20T00:23:24;7.10;99.90
44277;DHT22;29973;43.742;1.236;2023-12-20T00:25:49;7.10;99.90
44277;DHT22;29973;43.742;1.236;2023-12-20T00:28:15;7.10;99.90
44277;DHT22;29973;43.742;1.236;2023-12-20T00:30:41;7.20;99.90
44277;DHT22;29973;43.742;1.236;2023-12-20T00:33:07;7.10;99.90
44277;DHT22;29973;43.742;1.236;2023-12-20T00:35:32;7.20;99.90
44277;DHT22;29973;43.742;1.236;2023-12-20T00:37:59;7.20;99.90
44277;DHT22;29973;43.742;1.236;2023-12-20T00:40:24;7.20;99.90
44277;DHT22;29973;43.742;1.236;2023-12-20T00:42:50;7.20;99.90
44277;DHT22;29973;43.742;1.236;2023-12-20T00:45:16;7.10;99.90
44277;DHT22;29973;43.742;1.236;2023-12-20T00:47:41;7.20;99.90
44277;DHT22;29973;43.742;1.236;2023-12-20T00:50:08;7.20;99.90
44277;DHT22;29973;43.742;1.236;2023-12-20T00:52:33;7.20;99.90
44277;DHT22;29973;43.742;1.236;2023-12-20T00:54:59;7.20;99.90
44277;DHT22;29973;43.742;1.236;2023-12-20T00:57:25;7.20;99.90
44277;DHT22;29973;43.742;1.236;2023-12-20T00:59:50;7.20;99.90
44277;DHT22;29973;43.742;1.236;2023-12-20T01:02:16;7.20;99.90
44277;DHT22;29973;43.742;1.236;2023-12-20T01:04:42;7.20;99.90
44277;DHT22;29973;43.742;1.236;2023-12-20T01:07:08;7.20;99.90
44277;DHT22;29973;43.742;1.236;2023-12-20T01:09:33;7.20;99.90
44277;DHT22;29973;43.742;1.236;2023-12-20T01:11:59;7.30;99.90
44277;DHT22;29973;43.742;1.236;2023-12-20T01:14:25;7.30;99.90
44277;DHT22;29973;43.742;1.236;2023-12-20T01:16:50;7.20;99.90
44277;DHT22;29973;43.742;1.236;2023-12-20T01:19:16;7.20;99.90
44277;DHT22;29973;43.742;1.236;2023-12-20T01:21:42;7.20;99.90
44277;DHT22;29973;43.742;1.236;2023-12-20T01:24:07;7.20;99.90
44277;DHT22;29973;43.742;1.236;2023-12-20T01:26:33;7.30;99.90
44277;DHT22;29973;43.742;1.236;2023-12-20T01:28:58;7.30;99.90
44277;DHT22;29973;43.742;1.236;2023-12-20T01:31:24;7.30;99.90
44277;DHT22;29973;43.742;1.236;2023-12-20T01:33:50;7.40;99.90
44277;DHT22;29973;43.742;1.236;2023-12-20T01:36:15;7.40;99.90
44277;DHT22;29973;43.742;1.236;2023-12-20T01:38:41;7.40;99.90
44277;DHT22;29973;43.742;1.236;2023-12-20T01:41:07;7.50;99.90
44277;DHT22;29973;43.742;1.236;2023-12-20T01:43:32;7.50;99.90
44277;DHT22;29973;43.742;1.236;2023-12-20T01:45:58;7.50;99.90
44277;DHT22;29973;43.742;1.236;2023-12-20T01:48:25;7.60;99.90
44277;DHT22;29973;43.742;1.236;2023-12-20T01:50:51;7.70;99.90
44277;DHT22;29973;43.742;1.236;2023-12-20T01:53:19;7.60;99.90
44277;DHT22;29973;43.742;1.236;2023-12-20T01:55:45;7.60;99.90
44277;DHT22;29973;43.742;1.236;2023-12-20T01:58:13;7.70;99.90
44277;DHT22;29973;43.742;1.236;2023-12-20T02:00:40;7.80;99.90
44277;DHT22;29973;43.742;1.236;2023-12-20T02:03:06;7.80;99.90
44277;DHT22;29973;43.742;1.236;2023-12-20T02:05:34;7.80;99.90
44277;DHT22;29973;43.742;1.236;2023-12-20T02:08:00;7.80;99.90
44277;DHT22;29973;43.742;1.236;2023-12-20T02:10:26;7.80;99.90
44277;DHT22;29973;43.742;1.236;2023-12-20T02:12:52;7.90;99.90
44277;DHT22;29973;43.742;1.236;2023-12-20T02:15:18;7.90;99.90
44277;DHT22;29973;43.742;1.236;2023-12-20T02:17:44;7.90;99.90
44277;DHT22;29973;43.742;1.236;2023-12-20T02:20:10;7.90;99.90
44277;DHT22;29973;43.742;1.236;2023-12-20T02:22:36;7.90;99.90
44277;DHT22;29973;43.742;1.236;2023-12-20T02:25:02;7.80;99.90
44277;DHT22;29973;43.742;1.236;2023-12-20T02:27:29;7.80;99.90
44277;DHT22;29973;43.742;1.236;2023-12-20T02:29:55;7.80;99.90
44277;DHT22;29973;43.742;1.236;2023-12-20T02:32:21;7.80;99.90
44277;DHT22;29973;43.742;1.236;2023-12-20T02:34:48;7.80;99.90
44277;DHT22;29973;43.742;1.236;2023-12-20T02:37:14;7.70;99.90
44277;DHT22;29973;43.742;1.236;2023-12-20T02:39:40;7.70;99.90
44277;DHT22;29973;43.742;1.236;2023-12-20T02:42:05;7.70;99.90
44277;DHT22;29973;43.742;1.236;2023-12-20T02:44:31;7.60;99.90
44277;DHT22;29973;43.742;1.236;2023-12-20T02:46:57;7.60;99.90
44277;DHT22;29973;43.742;1.236;2023-12-20T02:49:22;7.60;99.90
44277;DHT22;29973;43.742;1.236;2023-12-20T02:51:48;7.60;99.90
44277;DHT22;29973;43.742;1.236;2023-12-20T02:54:14;7.60;99.90
44277;DHT22;29973;43.742;1.236;2023-12-20T02:56:39;7.60;99.90
44277;DHT22;29973;43.742;1.236;2023-12-20T02:59:05;7.60;99.90
44277;DHT22;29973;43.742;1.236;2023-12-20T03:01:31;7.60;99.90
44277;DHT22;29973;43.742;1.236;2023-12-20T03:03:57;7.60;99.90
44277;DHT22;29973;43.742;1.236;2023-12-20T03:06:23;7.60;99.90
44277;DHT22;29973;43.742;1.236;2023-12-20T03:08:49;7.60;99.90
44277;DHT22;29973;43.742;1.236;2023-12-20T03:11:15;7.60;99.90
44277;DHT22;29973;43.742;1.236;2023-12-20T03:13:41;7.60;99.90
44277;DHT22;29973;43.742;1.236;2023-12-20T03:16:13;7.60;99.90
44277;DHT22;29973;43.742;1.236;2023-12-20T03:18:39;7.60;99.90
44277;DHT22;29973;43.742;1.236;2023-12-20T03:21:05;7.60;99.90
44277;DHT22;29973;43.742;1.236;2023-12-20T03:23:31;7.60;99.90
44277;DHT22;29973;43.742;1.236;2023-12-20T03:25:59;7.50;99.90
44277;DHT22;29973;43.742;1.236;2023-12-20T03:28:26;7.50;99.90
44277;DHT22;29973;43.742;1.236;2023-12-20T03:30:51;7.60;99.90
44277;DHT22;29973;43.742;1.236;2023-12-20T03:33:17;7.60;99.90
44277;DHT22;29973;43.742;1.236;2023-12-20T03:35:43;7.60;99.90
44277;DHT22;29973;43.742;1.236;2023-12-20T03:38:09;7.60;99.90
44277;DHT22;29973;43.742;1.236;2023-12-20T03:40:34;7.60;99.90
44277;DHT22;29973;43.742;1.236;2023-12-20T03:43:00;7.60;99.90
44277;DHT22;29973;43.742;1.236;2023-12-20T03:45:26;7.60;99.90
44277;DHT22;29973;43.742;1.236;2023-12-20T03:47:52;7.70;99.90
44277;DHT22;29973;43.742;1.236;2023-12-20T03:50:24;7.70;99.90
44277;DHT22;29973;43.742;1.236;2023-12-20T03:52:49;7.70;99.90
44277;DHT22;29973;43.742;1.236;2023-12-20T03:55:15;7.80;99.90
44277;DHT22;29973;43.742;1.236;2023-12-20T03:57:41;7.70;99.90
44277;DHT22;29973;43.742;1.236;2023-12-20T04:00:10;7.80;99.90
44277;DHT22;29973;43.742;1.236;2023-12-20T04:02:42;7.90;99.90
44277;DHT22;29973;43.742;1.236;2023-12-20T04:05:09;7.90;99.90
44277;DHT22;29973;43.742;1.236;2023-12-20T04:07:35;7.80;99.90
44277;DHT22;29973;43.742;1.236;2023-12-20T04:10:02;7.80;99.90
44277;DHT22;29973;43.742;1.236;2023-12-20T04:12:29;7.90;99.90
44277;DHT22;29973;43.742;1.236;2023-12-20T04:14:54;7.90;99.90
44277;DHT22;29973;43.742;1.236;2023-12-20T04:17:20;7.90;99.90
44277;DHT22;29973;43.742;1.236;2023-12-20T04:19:48;7.90;99.90
44277;DHT22;29973;43.742;1.236;2023-12-20T04:22:14;7.90;99.90
44277;DHT22;29973;43.742;1.236;2023-12-20T04:24:40;7.90;99.90
44277;DHT22;29973;43.742;1.236;2023-12-20T04:27:07;7.90;99.90
44277;DHT22;29973;43.742;1.236;2023-12-20T04:29:33;7.90;99.90
44277;DHT22;29973;43.742;1.236;2023-12-20T04:31:59;7.90;99.90
44277;DHT22;29973;43.742;1.236;2023-12-20T04:34:25;7.90;99.90
44277;DHT22;29973;43.742;1.236;2023-12-20T04:36:51;7.90;99.90
44277;DHT22;29973;43.742;1.236;2023-12-20T04:39:16;7.90;99.90
44277;DHT22;29973;43.742;1.236;2023-12-20T04:41:42;7.90;99.90
44277;DHT22;29973;43.742;1.236;2023-12-20T04:44:08;7.90;99.90
44277;DHT22;29973;43.742;1.236;2023-12-20T04:46:33;8.00;99.90
44277;DHT22;29973;43.742;1.236;2023-12-20T04:48:59;8.00;99.90
44277;DHT22;29973;43.742;1.236;2023-12-20T04:51:24;8.00;99.90
44277;DHT22;29973;43.742;1.236;2023-12-20T04:53:50;8.00;99.90
44277;DHT22;29973;43.742;1.236;2023-12-20T04:56:16;8.10;99.90
44277;DHT22;29973;43.742;1.236;2023-12-20T04:58:42;8.10;99.90
44277;DHT22;29973;43.742;1.236;2023-12-20T05:01:08;8.10;99.90
44277;DHT22;29973;43.742;1.236;2023-12-20T05:03:34;8.20;99.90
44277;DHT22;29973;43.742;1.236;2023-12-20T05:06:00;8.20;99.90
44277;DHT22;29973;43.742;1.236;2023-12-20T05:08:26;8.30;99.90
44277;DHT22;29973;43.742;1.236;2023-12-20T05:10:54;8.20;99.90
44277;DHT22;29973;43.742;1.236;2023-12-20T05:13:20;8.30;99.90
44277;DHT22;29973;43.742;1.236;2023-12-20T05:15:46;8.30;99.90
44277;DHT22;29973;43.742;1.236;2023-12-20T05:18:12;8.30;99.90
44277;DHT22;29973;43.742;1.236;2023-12-20T05:20:38;8.30;99.90
44277;DHT22;29973;43.742;1.236;2023-12-20T05:23:04;8.30;99.90
44277;DHT22;29973;43.742;1.236;2023-12-20T05:25:30;8.40;99.90
44277;DHT22;29973;43.742;1.236;2023-12-20T05:27:55;8.40;99.90
44277;DHT22;29973;43.742;1.236;2023-12-20T05:30:21;8.40;99.90
44277;DHT22;29973;43.742;1.236;2023-12-20T05:32:47;8.40;99.90
44277;DHT22;29973;43.742;1.236;2023-12-20T05:35:13;8.40;99.90
44277;DHT22;29973;43.742;1.236;2023-12-20T05:37:38;8.40;99.90
44277;DHT22;29973;43.742;1.236;2023-12-20T05:40:05;8.40;99.90
44277;DHT22;29973;43.742;1.236;2023-12-20T05:42:30;8.50;99.90
44277;DHT22;29973;43.742;1.236;2023-12-20T05:44:56;8.50;99.90
44277;DHT22;29973;43.742;1.236;2023-12-20T05:47:22;8.50;99.90
44277;DHT22;29973;43.742;1.236;2023-12-20T05:49:47;8.50;99.90
44277;DHT22;29973;43.742;1.236;2023-12-20T05:52:13;8.60;99.90
44277;DHT22;29973;43.742;1.236;2023-12-20T05:54:39;8.60;99.90
44277;DHT22;29973;43.742;1.236;2023-12-20T05:57:05;8.70;99.90
44277;DHT22;29973;43.742;1.236;2023-12-20T05:59:30;8.70;99.90
44277;DHT22;29973;43.742;1.236;2023-12-20T06:01:56;8.70;99.90
44277;DHT22;29973;43.742;1.236;2023-12-20T06:04:22;8.80;99.90
44277;DHT22;29973;43.742;1.236;2023-12-20T06:06:47;8.80;99.90
44277;DHT22;29973;43.742;1.236;2023-12-20T06:09:13;8.80;99.90
44277;DHT22;29973;43.742;1.236;2023-12-20T06:11:40;8.80;99.90
44277;DHT22;29973;43.742;1.236;2023-12-20T06:14:06;8.80;99.90
44277;DHT22;29973;43.742;1.236;2023-12-20T06:16:31;8.90;99.90
44277;DHT22;29973;43.742;1.236;2023-12-20T06:18:57;8.90;99.90
44277;DHT22;29973;43.742;1.236;2023-12-20T06:21:23;9.00;99.90
44277;DHT22;29973;43.742;1.236;2023-12-20T06:23:48;9.00;99.90
44277;DHT22;29973;43.742;1.236;2023-12-20T06:26:14;9.00;99.90
44277;DHT22;29973;43.742;1.236;2023-12-20T06:28:40;9.00;99.90
44277;DHT22;29973;43.742;1.236;2023-12-20T06:31:05;9.00;99.90
44277;DHT22;29973;43.742;1.236;2023-12-20T06:33:31;9.10;99.90
44277;DHT22;29973;43.742;1.236;2023-12-20T06:35:57;9.10;99.90
44277;DHT22;29973;43.742;1.236;2023-12-20T06:38:23;9.10;99.90
44277;DHT22;29973;43.742;1.236;2023-12-20T06:40:49;9.10;99.90
44277;DHT22;29973;43.742;1.236;2023-12-20T06:43:14;9.10;99.90
44277;DHT22;29973;43.742;1.236;2023-12-20T06:45:40;9.10;99.90
44277;DHT22;29973;43.742;1.236;2023-12-20T06:48:06;9.00;99.90
44277;DHT22;29973;43.742;1.236;2023-12-20T06:50:32;9.00;99.90
44277;DHT22;29973;43.742;1.236;2023-12-20T06:52:58;9.00;99.90
44277;DHT22;29973;43.742;1.236;2023-12-20T06:55:23;9.00;99.90
44277;DHT22;29973;43.742;1.236;2023-12-20T06:57:49;8.90;99.90
44277;DHT22;29973;43.742;1.236;2023-12-20T07:00:15;8.90;99.90
44277;DHT22;29973;43.742;1.236;2023-12-20T07:02:41;8.90;99.90
44277;DHT22;29973;43.742;1.236;2023-12-20T07:05:07;8.80;99.90
44277;DHT22;29973;43.742;1.236;2023-12-20T07:07:32;8.80;99.90
44277;DHT22;29973;43.742;1.236;2023-12-20T07:09:58;8.80;99.90
44277;DHT22;29973;43.742;1.236;2023-12-20T07:12:24;8.70;99.90
44277;DHT22;29973;43.742;1.236;2023-12-20T07:14:49;8.70;99.90
44277;DHT22;29973;43.742;1.236;2023-12-20T07:17:15;8.70;99.90
44277;DHT22;29973;43.742;1.236;2023-12-20T07:19:41;8.60;99.90
44277;DHT22;29973;43.742;1.236;2023-12-20T07:22:07;8.60;99.90
44277;DHT22;29973;43.742;1.236;2023-12-20T07:24:33;8.60;99.90
44277;DHT22;29973;43.742;1.236;2023-12-20T07:27:00;8.60;99.90
44277;DHT22;29973;43.742;1.236;2023-12-20T07:29:25;8.60;99.90
44277;DHT22;29973;43.742;1.236;2023-12-20T07:31:52;8.50;99.90
44277;DHT22;29973;43.742;1.236;2023-12-20T07:34:20;8.50;99.90
44277;DHT22;29973;43.742;1.236;2023-12-20T07:36:45;8.50;99.90
44277;DHT22;29973;43.742;1.236;2023-12-20T07:39:11;8.50;99.90
44277;DHT22;29973;43.742;1.236;2023-12-20T07:41:37;8.40;99.90
44277;DHT22;29973;43.742;1.236;2023-12-20T07:44:04;8.50;99.90
44277;DHT22;29973;43.742;1.236;2023-12-20T07:46:29;8.50;99.90
44277;DHT22;29973;43.742;1.236;2023-12-20T07:48:55;8.40;99.90
44277;DHT22;29973;43.742;1.236;2023-12-20T07:51:21;8.50;99.90
44277;DHT22;29973;43.742;1.236;2023-12-20T07:53:46;8.50;99.90
44277;DHT22;29973;43.742;1.236;2023-12-20T07:56:16;8.40;99.90
44277;DHT22;29973;43.742;1.236;2023-12-20T07:58:42;8.40;99.90
44277;DHT22;29973;43.742;1.236;2023-12-20T08:01:08;8.40;99.90
44277;DHT22;29973;43.742;1.236;2023-12-20T08:03:34;8.40;99.90
44277;DHT22;29973;43.742;1.236;2023-12-20T08:06:00;8.40;99.90
44277;DHT22;29973;43.742;1.236;2023-12-20T08:08:26;8.40;99.90
44277;DHT22;29973;43.742;1.236;2023-12-20T08:10:51;8.40;99.90
44277;DHT22;29973;43.742;1.236;2023-12-20T08:13:17;8.40;99.90
44277;DHT22;29973;43.742;1.236;2023-12-20T08:15:43;8.40;99.90
44277;DHT22;29973;43.742;1.236;2023-12-20T08:18:08;8.30;99.90
44277;DHT22;29973;43.742;1.236;2023-12-20T08:20:35;8.40;99.90
44277;DHT22;29973;43.742;1.236;2023-12-20T08:23:00;8.50;99.90
44277;DHT22;29973;43.742;1.236;2023-12-20T08:25:26;8.40;99.90
44277;DHT22;29973;43.742;1.236;2023-12-20T08:27:53;8.40;99.90
44277;DHT22;29973;43.742;1.236;2023-12-20T08:30:18;8.50;99.90
44277;DHT22;29973;43.742;1.236;2023-12-20T08:32:47;8.50;99.90
44277;DHT22;29973;43.742;1.236;2023-12-20T08:35:13;8.60;99.90
44277;DHT22;29973;43.742;1.236;2023-12-20T08:37:39;8.50;99.90
44277;DHT22;29973;43.742;1.236;2023-12-20T08:40:05;8.70;99.90
44277;DHT22;29973;43.742;1.236;2023-12-20T08:42:31;8.70;99.90
44277;DHT22;29973;43.742;1.236;2023-12-20T08:44:57;8.60;99.90
44277;DHT22;29973;43.742;1.236;2023-12-20T08:47:26;8.50;99.90
44277;DHT22;29973;43.742;1.236;2023-12-20T08:49:52;8.80;99.90
44277;DHT22;29973;43.742;1.236;2023-12-20T08:52:22;8.80;99.90
44277;DHT22;29973;43.742;1.236;2023-12-20T08:54:49;8.90;99.90
44277;DHT22;29973;43.742;1.236;2023-12-20T08:57:19;8.80;99.90
44277;DHT22;29973;43.742;1.236;2023-12-20T08:59:44;8.70;99.90
44277;DHT22;29973;43.742;1.236;2023-12-20T09:02:10;8.70;99.90
44277;DHT22;29973;43.742;1.236;2023-12-20T09:04:36;8.70;99.90
44277;DHT22;29973;43.742;1.236;2023-12-20T09:07:01;8.60;99.90
44277;DHT22;29973;43.742;1.236;2023-12-20T09:09:27;8.50;99.90
44277;DHT22;29973;43.742;1.236;2023-12-20T09:11:53;8.60;99.90
44277;DHT22;29973;43.742;1.236;2023-12-20T09:14:18;8.70;99.90
44277;DHT22;29973;43.742;1.236;2023-12-20T09:16:44;8.60;99.90
44277;DHT22;29973;43.742;1.236;2023-12-20T09:19:10;8.70;99.90
44277;DHT22;29973;43.742;1.236;2023-12-20T09:21:35;8.80;99.90
44277;DHT22;29973;43.742;1.236;2023-12-20T09:24:01;8.90;99.90
44277;DHT22;29973;43.742;1.236;2023-12-20T09:26:27;8.70;99.90
44277;DHT22;29973;43.742;1.236;2023-12-20T09:28:52;8.70;99.90
44277;DHT22;29973;43.742;1.236;2023-12-20T09:31:18;8.70;99.90
44277;DHT22;29973;43.742;1.236;2023-12-20T09:33:43;8.80;99.90
44277;DHT22;29973;43.742;1.236;2023-12-20T09:36:09;8.90;99.90
44277;DHT22;29973;43.742;1.236;2023-12-20T09:38:35;8.80;99.90
44277;DHT22;29973;43.742;1.236;2023-12-20T09:41:00;8.80;99.90
44277;DHT22;29973;43.742;1.236;2023-12-20T09:43:29;8.80;99.90
44277;DHT22;29973;43.742;1.236;2023-12-20T09:45:57;8.90;99.90
44277;DHT22;29973;43.742;1.236;2023-12-20T09:48:26;9.10;99.90
44277;DHT22;29973;43.742;1.236;2023-12-20T09:50:53;8.90;99.90
44277;DHT22;29973;43.742;1.236;2023-12-20T09:53:19;9.00;99.90
44277;DHT22;29973;43.742;1.236;2023-12-20T09:55:46;9.20;99.90
44277;DHT22;29973;43.742;1.236;2023-12-20T09:58:12;9.20;99.90
44277;DHT22;29973;43.742;1.236;2023-12-20T10:00:38;9.30;99.90
44277;DHT22;29973;43.742;1.236;2023-12-20T10:03:03;9.40;99.90
44277;DHT22;29973;43.742;1.236;2023-12-20T10:05:32;9.20;99.90
44277;DHT22;29973;43.742;1.236;2023-12-20T10:07:59;9.00;99.90
44277;DHT22;29973;43.742;1.236;2023-12-20T10:10:25;9.40;99.90
44277;DHT22;29973;43.742;1.236;2023-12-20T10:13:10;9.20;99.90
44277;DHT22;29973;43.742;1.236;2023-12-20T10:15:36;9.90;99.90
44277;DHT22;29973;43.742;1.236;2023-12-20T10:18:03;9.70;99.90
44277;DHT22;29973;43.742;1.236;2023-12-20T10:20:30;9.30;99.90
44277;DHT22;29973;43.742;1.236;2023-12-20T10:22:57;9.50;99.90
44277;DHT22;29973;43.742;1.236;2023-12-20T10:25:23;9.30;99.90
44277;DHT22;29973;43.742;1.236;2023-12-20T10:27:50;10.30;99.90
44277;DHT22;29973;43.742;1.236;2023-12-20T10:30:16;9.80;99.90
44277;DHT22;29973;43.742;1.236;2023-12-20T10:32:41;10.00;99.90
44277;DHT22;29973;43.742;1.236;2023-12-20T10:35:08;9.90;99.90
44277;DHT22;29973;43.742;1.236;2023-12-20T10:37:37;9.30;99.90
44277;DHT22;29973;43.742;1.236;2023-12-20T10:40:04;10.10;99.90
44277;DHT22;29973;43.742;1.236;2023-12-20T10:42:31;13.00;99.90
44277;DHT22;29973;43.742;1.236;2023-12-20T10:44:59;13.80;99.90
44277;DHT22;29973;43.742;1.236;2023-12-20T10:47:25;12.80;99.90
44277;DHT22;29973;43.742;1.236;2023-12-20T10:49:52;12.10;99.90
44277;DHT22;29973;43.742;1.236;2023-12-20T10:52:19;12.40;99.90
44277;DHT22;29973;43.742;1.236;2023-12-20T10:54:48;13.00;99.90
44277;DHT22;29973;43.742;1.236;2023-12-20T10:57:14;14.20;99.90
44277;DHT22;29973;43.742;1.236;2023-12-20T10:59:43;14.30;99.90
44277;DHT22;29973;43.742;1.236;2023-12-20T11:02:11;16.10;99.90
44277;DHT22;29973;43.742;1.236;2023-12-20T11:05:10;16.50;99.90
44277;DHT22;29973;43.742;1.236;2023-12-20T11:07:52;15.20;99.90
44277;DHT22;29973;43.742;1.236;2023-12-20T11:10:25;14.10;99.90
44277;DHT22;29973;43.742;1.236;2023-12-20T11:13:03;16.00;99.90
44277;DHT22;29973;43.742;1.236;2023-12-20T11:15:37;14.90;99.90
44277;DHT22;29973;43.742;1.236;2023-12-20T11:18:04;14.90;99.90
44277;DHT22;29973;43.742;1.236;2023-12-20T11:20:41;15.50;99.90
44277;DHT22;29973;43.742;1.236;2023-12-20T11:23:08;12.90;99.90
44277;DHT22;29973;43.742;1.236;2023-12-20T11:25:47;14.20;99.90
44277;DHT22;29973;43.742;1.236;2023-12-20T11:28:14;15.90;98.20
44277;DHT22;29973;43.742;1.236;2023-12-20T11:33:16;14.50;98.00
44277;DHT22;29973;43.742;1.236;2023-12-20T11:35:42;15.50;99.90
44277;DHT22;29973;43.742;1.236;2023-12-20T11:38:11;14.90;95.60
44277;DHT22;29973;43.742;1.236;2023-12-20T11:40:38;15.50;95.10
44277;DHT22;29973;43.742;1.236;2023-12-20T11:43:06;14.90;96.30
44277;DHT22;29973;43.742;1.236;2023-12-20T11:45:32;14.10;99.50
44277;DHT22;29973;43.742;1.236;2023-12-20T11:47:58;13.70;99.90
44277;DHT22;29973;43.742;1.236;2023-12-20T11:50:24;15.40;97.70
44277;DHT22;29973;43.742;1.236;2023-12-20T11:52:51;14.20;96.10
44277;DHT22;29973;43.742;1.236;2023-12-20T11:55:17;14.60;98.60
44277;DHT22;29973;43.742;1.236;2023-12-20T11:57:43;13.40;99.90
44277;DHT22;29973;43.742;1.236;2023-12-20T12:00:10;13.70;99.90
44277;DHT22;29973;43.742;1.236;2023-12-20T12:02:36;11.80;99.90
44277;DHT22;29973;43.742;1.236;2023-12-20T12:05:02;10.50;99.90
44277;DHT22;29973;43.742;1.236;2023-12-20T12:07:30;9.90;99.90
44277;DHT22;29973;43.742;1.236;2023-12-20T12:09:56;11.30;99.90
44277;DHT22;29973;43.742;1.236;2023-12-20T12:12:21;13.80;99.90
44277;DHT22;29973;43.742;1.236;2023-12-20T12:14:48;13.80;99.90
44277;DHT22;29973;43.742;1.236;2023-12-20T12:17:15;15.30;98.40
44277;DHT22;29973;43.742;1.236;2023-12-20T12:19:42;15.90;96.40
44277;DHT22;29973;43.742;1.236;2023-12-20T12:22:10;14.80;96.40
44277;DHT22;29973;43.742;1.236;2023-12-20T12:24:43;12.90;99.90
44277;DHT22;29973;43.742;1.236;2023-12-20T12:27:09;12.90;99.90
44277;DHT22;29973;43.742;1.236;2023-12-20T12:29:36;12.60;99.40
44277;DHT22;29973;43.742;1.236;2023-12-20T12:32:06;14.80;95.20
44277;DHT22;29973;43.742;1.236;2023-12-20T12:34:33;13.60;97.90
44277;DHT22;29973;43.742;1.236;2023-12-20T12:37:00;12.30;99.90
44277;DHT22;29973;43.742;1.236;2023-12-20T12:39:25;11.40;99.90
44277;DHT22;29973;43.742;1.236;2023-12-20T12:41:52;12.40;99.90
44277;DHT22;29973;43.742;1.236;2023-12-20T12:44:18;13.40;99.00
44277;DHT22;29973;43.742;1.236;2023-12-20T12:46:46;12.00;99.00
44277;DHT22;29973;43.742;1.236;2023-12-20T12:49:12;12.90;99.10
44277;DHT22;29973;43.742;1.236;2023-12-20T12:51:38;12.20;98.40
44277;DHT22;29973;43.742;1.236;2023-12-20T12:54:04;12.20;99.90
44277;DHT22;29973;43.742;1.236;2023-12-20T12:56:30;12.90;99.90
44277;DHT22;29973;43.742;1.236;2023-12-20T12:58:56;11.40;99.90
44277;DHT22;29973;43.742;1.236;2023-12-20T13:01:22;11.80;99.90
44277;DHT22;29973;43.742;1.236;2023-12-20T13:03:47;10.50;99.90
44277;DHT22;29973;43.742;1.236;2023-12-20T13:06:13;11.80;99.90
44277;DHT22;29973;43.742;1.236;2023-12-20T13:08:39;10.90;99.90
44277;DHT22;29973;43.742;1.236;2023-12-20T13:11:04;12.00;99.90
44277;DHT22;29973;43.742;1.236;2023-12-20T13:13:30;13.00;99.90
44277;DHT22;29973;43.742;1.236;2023-12-20T13:15:56;12.90;99.20
44277;DHT22;29973;43.742;1.236;2023-12-20T13:18:23;14.30;97.10
44277;DHT22;29973;43.742;1.236;2023-12-20T13:20:49;12.80;99.20
44277;DHT22;29973;43.742;1.236;2023-12-20T13:23:15;11.70;99.90
44277;DHT22;29973;43.742;1.236;2023-12-20T13:25:41;10.80;99.90
44277;DHT22;29973;43.742;1.236;2023-12-20T13:28:07;10.10;99.90
44277;DHT22;29973;43.742;1.236;2023-12-20T13:30:34;10.00;99.90
44277;DHT22;29973;43.742;1.236;2023-12-20T13:32:59;9.70;99.90
44277;DHT22;29973;43.742;1.236;2023-12-20T13:35:25;9.50;99.90
44277;DHT22;29973;43.742;1.236;2023-12-20T13:37:51;9.50;99.90
44277;DHT22;29973;43.742;1.236;2023-12-20T13:40:17;9.60;99.90
44277;DHT22;29973;43.742;1.236;2023-12-20T13:42:43;9.70;99.90
44277;DHT22;29973;43.742;1.236;2023-12-20T13:45:09;10.30;99.90
44277;DHT22;29973;43.742;1.236;2023-12-20T13:47:35;10.50;99.90
44277;DHT22;29973;43.742;1.236;2023-12-20T13:50:01;10.50;99.90
44277;DHT22;29973;43.742;1.236;2023-12-20T13:52:27;9.50;99.90
44277;DHT22;29973;43.742;1.236;2023-12-20T13:54:53;9.50;99.90
44277;DHT22;29973;43.742;1.236;2023-12-20T13:57:19;9.30;99.90
44277;DHT22;29973;43.742;1.236;2023-12-20T13:59:44;9.20;99.90
44277;DHT22;29973;43.742;1.236;2023-12-20T14:02:10;9.00;99.90
44277;DHT22;29973;43.742;1.236;2023-12-20T14:04:36;9.10;99.90
44277;DHT22;29973;43.742;1.236;2023-12-20T14:07:01;9.10;99.90
44277;DHT22;29973;43.742;1.236;2023-12-20T14:09:28;9.20;99.90
44277;DHT22;29973;43.742;1.236;2023-12-20T14:11:53;9.20;99.90
44277;DHT22;29973;43.742;1.236;2023-12-20T14:14:20;9.20;99.90
44277;DHT22;29973;43.742;1.236;2023-12-20T14:16:45;9.50;99.90
44277;DHT22;29973;43.742;1.236;2023-12-20T14:19:12;9.30;99.90
44277;DHT22;29973;43.742;1.236;2023-12-20T14:21:37;9.30;99.90
44277;DHT22;29973;43.742;1.236;2023-12-20T14:24:03;9.10;99.90
44277;DHT22;29973;43.742;1.236;2023-12-20T14:26:30;9.00;99.90
44277;DHT22;29973;43.742;1.236;2023-12-20T14:28:56;9.00;99.90
44277;DHT22;29973;43.742;1.236;2023-12-20T14:31:21;9.00;99.90
44277;DHT22;29973;43.742;1.236;2023-12-20T14:33:49;9.00;99.90
44277;DHT22;29973;43.742;1.236;2023-12-20T14:36:16;9.00;99.90
44277;DHT22;29973;43.742;1.236;2023-12-20T14:38:43;8.90;99.90
44277;DHT22;29973;43.742;1.236;2023-12-20T14:41:09;8.90;99.90
44277;DHT22;29973;43.742;1.236;2023-12-20T14:43:35;8.90;99.90
44277;DHT22;29973;43.742;1.236;2023-12-20T14:46:01;8.90;99.90
44277;DHT22;29973;43.742;1.236;2023-12-20T14:48:26;8.90;99.90
44277;DHT22;29973;43.742;1.236;2023-12-20T14:50:55;9.00;99.90
44277;DHT22;29973;43.742;1.236;2023-12-20T14:53:21;9.00;99.90
44277;DHT22;29973;43.742;1.236;2023-12-20T14:55:46;9.00;99.90
44277;DHT22;29973;43.742;1.236;2023-12-20T14:58:12;9.00;99.90
44277;DHT22;29973;43.742;1.236;2023-12-20T15:00:38;8.90;99.90
44277;DHT22;29973;43.742;1.236;2023-12-20T15:03:04;8.90;99.90
44277;DHT22;29973;43.742;1.236;2023-12-20T15:05:31;8.90;99.90
44277;DHT22;29973;43.742;1.236;2023-12-20T15:07:56;8.90;99.90
44277;DHT22;29973;43.742;1.236;2023-12-20T15:10:22;8.90;99.90
44277;DHT22;29973;43.742;1.236;2023-12-20T15:12:48;8.90;99.90
44277;DHT22;29973;43.742;1.236;2023-12-20T15:15:13;8.80;99.90
44277;DHT22;29973;43.742;1.236;2023-12-20T15:17:39;8.90;99.90
44277;DHT22;29973;43.742;1.236;2023-12-20T15:20:05;8.80;99.90
44277;DHT22;29973;43.742;1.236;2023-12-20T15:22:31;8.80;99.90
44277;DHT22;29973;43.742;1.236;2023-12-20T15:24:59;8.70;99.90
44277;DHT22;29973;43.742;1.236;2023-12-20T15:27:25;8.70;99.90
44277;DHT22;29973;43.742;1.236;2023-12-20T15:29:50;8.70;99.90
44277;DHT22;29973;43.742;1.236;2023-12-20T15:32:17;8.70;99.90
44277;DHT22;29973;43.742;1.236;2023-12-20T15:34:44;8.60;99.90
44277;DHT22;29973;43.742;1.236;2023-12-20T15:37:11;8.60;99.90
44277;DHT22;29973;43.742;1.236;2023-12-20T15:39:36;8.60;99.90